Warning: Javascript must be enabled to use all the features on this page!


Page Loading - Please Wait...

Click to hideNews Bulletins

Peak Streamflow for the Nation

USGS 07292500 HOMOCHITTO RIVER AT ROSETTA, MS

Franklin County, Mississippi
Hydrologic Unit Code 08060205
Latitude  31°19'29", Longitude  91°06'34" NAD83
Drainage area 787  square miles
Contributing drainage area 787  square miles
Gage datum 94.39 feet above NGVD29
Output formats
Table
Graph
Tab-separated file
peakfq (watstore) format
Reselect output format
Water
Year
Date Gage
Height
(feet)
Stream-
flow
(cfs)
1949 1949-03-31 37.80  
1950 1950-01-06 37.60  
1951 1951-03-29 30.30  
1952 1951-12-15 25.72 9,930
1953 1953-05-04 36.03 59,400
1954 1954-05-03 24.08 9,160
1955 1955-04-13 35.62 70,500
1956 1956-03-15 28.60 47,500
1957 1957-06-28 27.72 40,400
1958 1957-11-18 25.85 27,700
1959 1959-02-02 22.35 12,100
1960 1959-12-17 29.70 65,300
1961 1961-03-28 31.20 97,000
1962 1961-12-17 26.58 65,500
1963 1963-01-19 26.60 65,700
1964 1964-04-27 25.50 58,800
1965 1964-10-04 29.30 141,000
1966 1966-04-26 26.70 78,000
1967 1967-05-04 24.54 47,400
1968 1967-12-15 24.28 44,800
1969 1969-04-13 20.80 20,200
1970 1970-03-04 18.10 10,700
1971 1971-03-19 20.60 21,100
1972 1971-12-06 27.60 130,000
1973 1973-03-24 27.50 128,000
1974 1974-04-13 28.60 150,000
1975 1975-06-08 25.64 95,200
1976 1976-03-30 21.96 45,300
1977 1977-04-21 24.093 112,000
1978 1977-11-30 23.523 100,000
1979 1979-02-24 21.05 77,200
1980 1980-02-09 20.01 54,200
1981 1981-07-02 20.80 61,800
1982 1982-03-31 18.62 39,900
1983 1983-04-06 22.74 94,900
1984 1984-03-05 19.91 54,600
1985 1984-10-21 21.25 84,700
1986 1986-03-19 16.87 28,700
1987 1986-11-24 17.51 36,800
1988 1988-03-25 15.86 26,900
1989 1989-05-19 20.91 79,800
1990 1990-01-25 22.77 97,500
1991 1991-04-15 19.32 56,900
1992 1992-08-27 17.72 39,500
1993 1993-01-12 17.91 41,300
1994 1994-01-27 23.45 107,000
1995 1995-04-23 19.31 57,700
1996 1995-12-18 16.49 34,200
1997 1997-04-27 20.49 69,900
1998 1998-01-07 20.41 69,000
1999 1999-01-30 17.82 44,400
2000 2000-04-03 10.81 7,220
2001 2001-03-02 21.61 82,700
2002 2002-09-26 18.20 45,200
2003 2003-02-22 22.75 96,400
2004 2004-02-05 20.49 67,700
2005 2004-12-09 18.65 49,200
2006 2006-03-21 13.42 15,800
2007 2006-12-31   32,0002
2008 2008-09-02 20.81 71,300
2009 2009-03-28 16.67 33,500
2010 2009-12-15 15.93 28,700
2011 2011-03-09 18.54 50,100
2012 2012-08-30 18.38 44,800
2013 2013-01-10 22.19 89,800
2014 2014-03-28 18.71 45,900
2015 2015-05-26 11.87 11,700
2016 2016-02-03 20.10 60,200
2017 2017-01-19 17.57 38,500
2018 2018-04-22 15.71 28,400R
2019 2019-04-19 17.19 36,300R
2020 2020-09-24 18.43 43,700R
2021 2021-04-24 21.45 65,800R
?
  Peak Gage-Height Qualification Codes.
?
  Peak Streamflow Qualification Codes.